createdAt,value
2018-08-13T00:01:33.810Z,12.30
2018-08-13T00:04:03.336Z,12.30
2018-08-13T00:06:32.477Z,12.30
2018-08-13T00:09:01.805Z,12.30
2018-08-13T00:11:30.891Z,12.30
2018-08-13T00:13:59.890Z,12.30
2018-08-13T00:16:28.997Z,12.30
2018-08-13T00:18:58.095Z,12.30
2018-08-13T00:21:27.384Z,12.20
2018-08-13T00:23:56.726Z,12.20
2018-08-13T00:26:25.818Z,12.10
2018-08-13T00:28:54.822Z,12.10
2018-08-13T00:31:24.013Z,12.00
2018-08-13T00:33:53.160Z,12.00
2018-08-13T00:36:22.122Z,12.00
2018-08-13T00:38:51.326Z,12.00
2018-08-13T00:41:20.430Z,12.00
2018-08-13T00:43:49.655Z,12.00
2018-08-13T00:46:18.777Z,11.90
2018-08-13T00:48:47.959Z,11.90
2018-08-13T00:51:16.977Z,11.90
2018-08-13T00:53:46.002Z,11.90
2018-08-13T00:56:15.549Z,11.80
2018-08-13T00:58:45.021Z,11.80
2018-08-13T01:01:14.413Z,11.80
2018-08-13T01:03:43.482Z,11.80
2018-08-13T01:06:12.378Z,11.80
2018-08-13T01:08:41.513Z,11.80
2018-08-13T01:11:10.625Z,11.80
2018-08-13T01:13:39.761Z,11.70
2018-08-13T01:16:08.837Z,11.70
2018-08-13T01:18:37.998Z,11.70
2018-08-13T01:21:07.071Z,11.70
2018-08-13T01:23:36.294Z,11.70
2018-08-13T01:26:05.300Z,11.70
2018-08-13T01:28:34.740Z,11.70
2018-08-13T01:31:04.446Z,11.70
2018-08-13T01:33:33.729Z,11.70
2018-08-13T01:36:02.753Z,11.70
2018-08-13T01:38:31.757Z,11.70
2018-08-13T01:41:00.957Z,11.70
2018-08-13T01:43:30.268Z,11.70
2018-08-13T01:45:59.548Z,11.70
2018-08-13T01:48:28.738Z,11.70
2018-08-13T01:50:57.737Z,11.70
2018-08-13T01:53:26.821Z,11.70
2018-08-13T01:55:56.009Z,11.60
2018-08-13T01:58:25.223Z,11.60
2018-08-13T02:00:54.273Z,11.60
2018-08-13T02:03:23.597Z,11.60
2018-08-13T02:05:52.527Z,11.60
2018-08-13T02:08:22.239Z,11.50
2018-08-13T02:10:51.214Z,11.50
2018-08-13T02:13:20.213Z,11.50
2018-08-13T02:15:49.128Z,11.50
2018-08-13T02:18:18.111Z,11.50
2018-08-13T02:20:47.199Z,11.50
2018-08-13T02:23:16.585Z,11.50
2018-08-13T02:25:45.534Z,11.40
2018-08-13T02:28:14.542Z,11.40
2018-08-13T02:30:43.797Z,11.40
2018-08-13T02:33:12.810Z,11.40
2018-08-13T02:35:41.628Z,11.40
2018-08-13T02:38:10.878Z,11.30
2018-08-13T02:40:40.062Z,11.30
2018-08-13T02:43:08.919Z,11.30
2018-08-13T02:45:38.084Z,11.30
2018-08-13T02:48:07.832Z,11.30
2018-08-13T02:50:37.259Z,11.30
2018-08-13T02:53:06.931Z,11.30
2018-08-13T02:55:36.181Z,11.20
2018-08-13T02:58:05.465Z,11.20
2018-08-13T03:00:34.861Z,11.20
2018-08-13T03:03:03.987Z,11.20
2018-08-13T03:05:32.949Z,11.20
2018-08-13T03:08:02.012Z,11.20
2018-08-13T03:10:31.374Z,11.20
2018-08-13T03:13:00.237Z,11.20
2018-08-13T03:15:29.422Z,11.10
2018-08-13T03:17:58.969Z,11.10
2018-08-13T03:20:28.221Z,11.10
2018-08-13T03:22:57.326Z,11.10
2018-08-13T03:25:26.600Z,11.10
2018-08-13T03:27:55.441Z,11.10
2018-08-13T03:30:24.912Z,11.00
2018-08-13T03:32:53.885Z,11.00
2018-08-13T03:35:23.169Z,11.10
2018-08-13T03:37:52.160Z,11.00
2018-08-13T03:40:21.167Z,11.00
2018-08-13T03:42:50.029Z,11.00
2018-08-13T03:45:19.520Z,11.00
2018-08-13T03:47:48.730Z,11.00
2018-08-13T03:50:18.050Z,11.00
2018-08-13T03:52:47.005Z,11.00
2018-08-13T03:55:15.893Z,11.00
2018-08-13T03:57:45.031Z,11.00
2018-08-13T04:00:15.490Z,11.00
2018-08-13T04:02:44.883Z,11.00
2018-08-13T04:05:14.571Z,11.00
2018-08-13T04:07:44.181Z,11.00
2018-08-13T04:10:13.765Z,11.00
2018-08-13T04:12:43.919Z,11.00
2018-08-13T04:15:14.340Z,11.00
2018-08-13T04:17:44.325Z,11.10
2018-08-13T04:20:14.281Z,11.00
2018-08-13T04:22:43.593Z,11.10
2018-08-13T04:25:12.926Z,11.10
2018-08-13T04:27:42.613Z,11.10
2018-08-13T04:30:14.149Z,11.10
2018-08-13T04:32:44.135Z,11.10
2018-08-13T04:35:13.321Z,11.10
2018-08-13T04:37:43.291Z,11.20
2018-08-13T04:40:15.162Z,11.20
2018-08-13T04:42:45.118Z,11.20
2018-08-13T04:45:14.414Z,11.20
2018-08-13T04:47:48.986Z,11.30
2018-08-13T04:50:18.228Z,11.30
2018-08-13T04:52:47.517Z,11.30
2018-08-13T04:55:16.758Z,11.40
2018-08-13T04:57:46.008Z,11.40
2018-08-13T05:00:15.038Z,11.40
2018-08-13T05:02:44.063Z,11.40
2018-08-13T05:05:13.136Z,11.40
2018-08-13T05:07:42.553Z,11.50
2018-08-13T05:10:12.269Z,11.50
2018-08-13T05:12:41.793Z,11.50
2018-08-13T05:15:11.365Z,11.60
2018-08-13T05:17:40.588Z,11.60
2018-08-13T05:20:10.277Z,11.60
2018-08-13T05:22:39.375Z,11.70
2018-08-13T05:25:09.734Z,11.70
2018-08-13T05:27:39.144Z,11.70
2018-08-13T05:30:09.528Z,11.70
2018-08-13T05:32:38.535Z,11.80
2018-08-13T05:35:08.305Z,11.80
2018-08-13T05:37:37.745Z,11.80
2018-08-13T05:40:07.982Z,11.90
2018-08-13T05:42:37.478Z,12.00
2018-08-13T05:45:07.590Z,12.00
2018-08-13T05:47:36.614Z,12.00
2018-08-13T05:50:07.196Z,12.10
2018-08-13T05:52:36.177Z,12.10
2018-08-13T05:55:05.857Z,12.10
2018-08-13T05:57:35.010Z,12.20
2018-08-13T06:00:05.350Z,12.30
2018-08-13T06:02:34.385Z,12.30
2018-08-13T06:05:03.520Z,12.40
2018-08-13T06:07:32.666Z,12.40
2018-08-13T06:10:01.714Z,12.50
2018-08-13T06:12:30.961Z,12.50
2018-08-13T06:14:59.991Z,12.50
2018-08-13T06:17:29.601Z,12.60
2018-08-13T06:19:58.961Z,12.60
2018-08-13T06:22:28.339Z,12.70
2018-08-13T06:24:57.527Z,12.70
2018-08-13T06:27:26.831Z,12.80
2018-08-13T06:29:56.050Z,12.80
2018-08-13T06:32:25.115Z,12.80
2018-08-13T06:34:54.363Z,12.90
2018-08-13T06:37:23.710Z,13.00
2018-08-13T06:39:52.945Z,13.00
2018-08-13T06:42:21.956Z,13.10
2018-08-13T06:44:51.102Z,13.10
2018-08-13T06:47:20.359Z,13.20
2018-08-13T06:49:49.913Z,13.20
2018-08-13T06:52:19.100Z,13.20
2018-08-13T06:54:48.372Z,13.20
2018-08-13T06:57:17.503Z,13.30
2018-08-13T06:59:46.761Z,13.40
2018-08-13T07:02:16.116Z,13.40
2018-08-13T07:04:45.568Z,13.40
2018-08-13T07:07:15.109Z,13.50
2018-08-13T07:09:44.612Z,13.60
2018-08-13T07:12:13.796Z,13.60
2018-08-13T07:14:57.401Z,13.70
2018-08-13T07:17:26.711Z,13.80
2018-08-13T07:19:56.230Z,13.80
2018-08-13T07:22:25.487Z,13.90
2018-08-13T07:24:54.562Z,13.90
2018-08-13T07:27:23.878Z,14.00
2018-08-13T07:29:53.577Z,14.10
2018-08-13T07:32:23.673Z,14.10
2018-08-13T07:34:53.614Z,14.20
2018-08-13T07:37:25.380Z,14.30
2018-08-13T07:39:54.846Z,14.40
2018-08-13T07:42:24.141Z,14.50
2018-08-13T07:44:54.285Z,14.70
2018-08-13T07:47:23.718Z,14.80
2018-08-13T07:49:53.725Z,15.00
2018-08-13T07:52:23.343Z,15.20
2018-08-13T07:54:53.141Z,15.50
2018-08-13T07:57:22.935Z,15.70
2018-08-13T07:59:52.539Z,15.90
2018-08-13T08:02:23.281Z,16.20
2018-08-13T08:04:53.185Z,16.40
2018-08-13T08:07:23.334Z,16.60
2018-08-13T08:09:52.847Z,16.70
2018-08-13T08:12:22.216Z,17.00
2018-08-13T08:14:51.516Z,17.20
2018-08-13T08:17:20.522Z,17.40
2018-08-13T08:19:49.980Z,17.60
2018-08-13T08:22:19.484Z,17.80
2018-08-13T08:24:48.481Z,18.00
2018-08-13T08:27:18.067Z,18.10
2018-08-13T08:29:47.672Z,18.30
2018-08-13T08:32:17.293Z,18.60
2018-08-13T08:34:47.146Z,18.80
2018-08-13T08:37:16.671Z,19.00
2018-08-13T08:39:46.340Z,19.10
2018-08-13T08:42:15.704Z,19.30
2018-08-13T08:44:46.921Z,19.50
2018-08-13T08:47:16.567Z,19.80
2018-08-13T08:49:45.882Z,19.90
2018-08-13T08:52:15.417Z,20.00
2018-08-13T08:54:44.770Z,20.20
2018-08-13T08:57:14.501Z,20.40
2018-08-13T08:59:43.937Z,20.40
2018-08-13T09:02:13.873Z,20.60
2018-08-13T09:04:43.853Z,20.60
2018-08-13T09:07:13.213Z,20.60
2018-08-13T09:09:42.572Z,20.70
2018-08-13T09:12:13.318Z,20.90
2018-08-13T09:14:43.220Z,21.20
2018-08-13T09:17:13.494Z,21.30
2018-08-13T09:19:53.883Z,21.50
2018-08-13T09:22:34.249Z,21.90
2018-08-13T09:25:14.977Z,22.10
2018-08-13T09:27:55.065Z,22.40
2018-08-13T09:30:35.169Z,22.60
2018-08-13T09:33:15.183Z,22.60
2018-08-13T09:35:44.793Z,22.90
2018-08-13T09:38:14.391Z,23.00
2018-08-13T09:40:43.726Z,23.30
2018-08-13T09:43:13.851Z,23.70
2018-08-13T09:45:43.180Z,23.60
2018-08-13T09:48:12.386Z,23.70
2018-08-13T09:50:43.413Z,23.90
2018-08-13T09:53:13.246Z,24.00
2018-08-13T09:55:44.265Z,23.90
2018-08-13T09:58:13.360Z,24.10
2018-08-13T10:00:47.785Z,24.20
2018-08-13T10:03:17.003Z,24.30
2018-08-13T10:05:46.325Z,24.10
2018-08-13T10:08:15.434Z,23.90
2018-08-13T10:10:44.596Z,23.90
2018-08-13T10:13:13.882Z,23.90
2018-08-13T10:15:43.146Z,24.10
2018-08-13T10:18:12.270Z,24.20
2018-08-13T10:20:41.525Z,24.50
2018-08-13T10:23:10.639Z,24.90
2018-08-13T10:25:39.824Z,25.00
2018-08-13T10:28:09.026Z,25.10
2018-08-13T10:30:38.069Z,25.10
2018-08-13T10:33:07.628Z,25.30
2018-08-13T10:35:36.518Z,25.50
2018-08-13T10:38:06.595Z,25.80
2018-08-13T10:40:36.429Z,26.00
2018-08-13T10:43:05.513Z,25.60
2018-08-13T10:45:35.063Z,25.50
2018-08-13T10:48:04.093Z,25.50
2018-08-13T10:50:33.450Z,25.60
2018-08-13T10:53:02.569Z,25.80
2018-08-13T10:55:31.676Z,26.10
2018-08-13T10:58:00.625Z,26.30
2018-08-13T11:00:29.637Z,26.60
2018-08-13T11:02:58.740Z,26.90
2018-08-13T11:05:28.285Z,27.10
2018-08-13T11:07:57.240Z,27.00
2018-08-13T11:10:26.305Z,26.90
2018-08-13T11:12:55.522Z,27.20
2018-08-13T11:15:24.719Z,27.50
2018-08-13T11:17:53.891Z,27.80
2018-08-13T11:20:23.084Z,27.90
2018-08-13T11:22:52.301Z,28.30
2018-08-13T11:25:21.499Z,28.80
2018-08-13T11:27:51.005Z,29.20
2018-08-13T11:30:19.913Z,29.50
2018-08-13T11:32:49.357Z,29.70
2018-08-13T11:35:18.601Z,30.00
2018-08-13T11:37:47.915Z,30.10
2018-08-13T11:40:17.941Z,30.90
2018-08-13T11:42:47.338Z,31.40
2018-08-13T11:45:16.679Z,31.50
2018-08-13T11:47:46.017Z,31.70
2018-08-13T11:50:20.613Z,31.30
2018-08-13T11:52:50.833Z,30.20
2018-08-13T11:55:21.043Z,29.50
2018-08-13T11:57:51.057Z,28.60
2018-08-13T12:00:20.736Z,28.40
2018-08-13T12:02:50.420Z,27.80
2018-08-13T12:05:19.533Z,27.70
2018-08-13T12:07:48.975Z,27.30
2018-08-13T12:10:18.468Z,27.00
2018-08-13T12:12:47.745Z,26.50
2018-08-13T12:15:16.981Z,26.40
2018-08-13T12:17:46.347Z,25.90
2018-08-13T12:20:17.338Z,25.10
2018-08-13T12:22:46.806Z,24.90
2018-08-13T12:25:24.398Z,24.80
2018-08-13T12:27:53.907Z,24.90
2018-08-13T12:30:22.965Z,24.80
2018-08-13T12:32:53.190Z,24.80
2018-08-13T12:35:22.442Z,24.90
2018-08-13T12:37:51.829Z,24.70
2018-08-13T12:40:21.997Z,24.60
2018-08-13T12:42:50.909Z,24.50
2018-08-13T12:45:20.069Z,24.50
2018-08-13T12:47:49.361Z,24.30
2018-08-13T12:50:20.177Z,24.20
2018-08-13T12:52:50.398Z,23.90
2018-08-13T12:55:19.913Z,23.90
2018-08-13T12:57:48.973Z,23.90
2018-08-13T13:00:18.924Z,24.00
2018-08-13T13:02:49.074Z,24.00
2018-08-13T13:05:18.676Z,23.90
2018-08-13T13:07:47.678Z,23.70
2018-08-13T13:10:17.873Z,23.70
2018-08-13T13:12:47.013Z,23.60
2018-08-13T13:15:17.913Z,23.50
2018-08-13T13:17:47.121Z,23.60
2018-08-13T13:20:20.169Z,23.40
2018-08-13T13:22:51.178Z,23.30
2018-08-13T13:25:20.874Z,23.20
2018-08-13T13:27:50.135Z,23.20
2018-08-13T13:30:19.439Z,23.20
2018-08-13T13:32:48.950Z,23.20
2018-08-13T13:35:18.349Z,23.30
2018-08-13T13:37:47.493Z,23.20
2018-08-13T13:40:17.308Z,23.20
2018-08-13T13:42:46.432Z,23.20
2018-08-13T13:45:16.228Z,23.20
2018-08-13T13:47:45.590Z,23.30
2018-08-13T13:50:15.825Z,23.20
2018-08-13T13:52:45.534Z,23.20
2018-08-13T13:55:14.993Z,23.10
2018-08-13T13:57:44.223Z,23.00
2018-08-13T14:00:17.041Z,23.10
2018-08-13T14:02:47.436Z,23.00
2018-08-13T14:05:16.583Z,22.90
2018-08-13T14:07:45.762Z,22.90
2018-08-13T14:10:18.412Z,22.80
2018-08-13T14:12:47.633Z,22.70
2018-08-13T14:15:19.438Z,22.80
2018-08-13T14:17:49.025Z,22.80
2018-08-13T14:20:18.161Z,22.70
2018-08-13T14:22:47.409Z,22.70
2018-08-13T14:25:16.678Z,22.70
2018-08-13T14:27:45.869Z,22.60
2018-08-13T14:30:23.093Z,22.60
2018-08-13T14:32:52.435Z,22.60
2018-08-13T14:35:22.564Z,22.60
2018-08-13T14:37:52.233Z,22.60
2018-08-13T14:40:21.843Z,22.60
2018-08-13T14:42:51.150Z,22.60
2018-08-13T14:45:20.375Z,22.60
2018-08-13T14:47:50.708Z,22.50
2018-08-13T14:50:19.824Z,22.40
2018-08-13T14:52:49.609Z,22.40
2018-08-13T14:55:20.425Z,22.40
2018-08-13T14:57:49.565Z,22.40
2018-08-13T15:00:23.955Z,22.50
2018-08-13T15:02:54.154Z,22.50
2018-08-13T15:05:24.022Z,22.60
2018-08-13T15:07:53.421Z,22.60
2018-08-13T15:10:23.502Z,22.50
2018-08-13T15:12:52.732Z,22.50
2018-08-13T15:15:22.194Z,22.40
2018-08-13T15:17:51.769Z,22.30
2018-08-13T15:20:24.138Z,22.20
2018-08-13T15:22:53.289Z,22.10
2018-08-13T15:25:22.566Z,22.00
2018-08-13T15:27:51.655Z,22.00
2018-08-13T15:30:21.726Z,21.90
2018-08-13T15:32:51.573Z,21.80
2018-08-13T15:35:20.718Z,21.60
2018-08-13T15:37:50.426Z,21.60
2018-08-13T15:40:19.861Z,21.40
2018-08-13T15:42:49.109Z,21.40
2018-08-13T15:45:19.757Z,21.40
2018-08-13T15:47:49.169Z,21.40
2018-08-13T15:50:20.423Z,21.40
2018-08-13T15:52:49.781Z,21.40
2018-08-13T15:55:19.201Z,21.50
2018-08-13T15:57:48.565Z,21.40
2018-08-13T16:00:21.198Z,21.50
2018-08-13T16:02:50.512Z,21.50
2018-08-13T16:05:19.846Z,21.40
2018-08-13T16:07:49.701Z,21.40
2018-08-13T16:10:19.309Z,21.30
2018-08-13T16:12:48.520Z,21.30
2018-08-13T16:15:17.546Z,21.20
2018-08-13T16:17:46.832Z,21.10
2018-08-13T16:20:17.840Z,21.00
2018-08-13T16:22:47.416Z,20.90
2018-08-13T16:25:16.986Z,20.90
2018-08-13T16:27:46.920Z,20.90
2018-08-13T16:30:25.014Z,20.90
2018-08-13T16:32:54.147Z,20.90
2018-08-13T16:35:24.086Z,20.80
2018-08-13T16:37:53.468Z,20.70
2018-08-13T16:40:22.990Z,20.70
2018-08-13T16:42:52.626Z,20.50
2018-08-13T16:45:22.639Z,20.60
2018-08-13T16:47:51.958Z,20.50
2018-08-13T16:50:24.290Z,20.50
2018-08-13T16:52:53.644Z,20.40
2018-08-13T16:55:23.076Z,20.40
2018-08-13T16:57:52.116Z,20.40
2018-08-13T17:00:22.850Z,20.30
2018-08-13T17:02:52.461Z,20.20
2018-08-13T17:05:21.778Z,20.30
2018-08-13T17:07:52.102Z,20.20
2018-08-13T17:10:22.852Z,20.20
2018-08-13T17:12:52.590Z,20.10
2018-08-13T17:15:22.071Z,19.90
2018-08-13T17:17:53.420Z,19.90
2018-08-13T17:20:24.894Z,19.70
2018-08-13T17:22:56.219Z,19.60
2018-08-13T17:25:25.230Z,19.60
2018-08-13T17:27:56.025Z,19.50
2018-08-13T17:30:26.250Z,19.40
2018-08-13T17:32:56.898Z,19.40
2018-08-13T17:35:30.256Z,19.30
2018-08-13T17:38:00.505Z,19.30
2018-08-13T17:40:30.244Z,19.20
2018-08-13T17:43:00.515Z,19.10
2018-08-13T17:45:29.696Z,19.10
2018-08-13T17:47:59.426Z,19.00
2018-08-13T17:50:28.495Z,19.00
2018-08-13T17:52:57.619Z,18.90
2018-08-13T17:55:27.337Z,18.80
2018-08-13T17:57:59.002Z,18.80
2018-08-13T18:00:28.705Z,18.70
2018-08-13T18:02:57.796Z,18.60
2018-08-13T18:05:27.580Z,18.60
2018-08-13T18:07:57.161Z,18.60
2018-08-13T18:10:29.454Z,18.50
2018-08-13T18:12:59.761Z,18.40
2018-08-13T18:15:28.805Z,18.40
2018-08-13T18:17:58.682Z,18.40
2018-08-13T18:20:27.882Z,18.30
2018-08-13T18:22:57.261Z,18.30
2018-08-13T18:25:26.494Z,18.30
2018-08-13T18:27:56.365Z,18.20
2018-08-13T18:30:27.041Z,18.10
2018-08-13T18:32:56.330Z,18.00
2018-08-13T18:35:25.612Z,18.00
2018-08-13T18:37:55.082Z,17.90
2018-08-13T18:40:30.189Z,17.90
2018-08-13T18:42:59.745Z,17.80
2018-08-13T18:45:29.011Z,17.80
2018-08-13T18:47:58.645Z,17.80
2018-08-13T18:50:28.002Z,17.70
2018-08-13T18:52:57.278Z,17.60
2018-08-13T18:55:27.693Z,17.50
2018-08-13T18:57:57.340Z,17.40
2018-08-13T19:00:28.661Z,17.40
2018-08-13T19:02:58.801Z,17.30
2018-08-13T19:05:28.087Z,17.20
2018-08-13T19:07:57.403Z,17.20
2018-08-13T19:10:26.893Z,17.10
2018-08-13T19:12:56.221Z,17.00
2018-08-13T19:15:26.917Z,16.90
2018-08-13T19:17:56.127Z,16.90
2018-08-13T19:20:25.365Z,16.80
2018-08-13T19:22:57.409Z,16.80
2018-08-13T19:25:28.230Z,16.80
2018-08-13T19:27:57.548Z,16.70
2018-08-13T19:30:26.866Z,16.60
2018-08-13T19:32:56.198Z,16.60
2018-08-13T19:35:25.301Z,16.50
2018-08-13T19:37:55.213Z,16.40
2018-08-13T19:40:26.370Z,16.40
2018-08-13T19:42:55.952Z,16.30
2018-08-13T19:45:25.941Z,16.20
2018-08-13T19:47:56.219Z,16.20
2018-08-13T19:50:25.974Z,16.10
2018-08-13T19:52:55.811Z,16.10
2018-08-13T19:55:24.952Z,16.10
2018-08-13T19:57:55.017Z,16.00
2018-08-13T20:00:26.887Z,16.00
2018-08-13T20:02:56.710Z,16.00
2018-08-13T20:05:27.398Z,15.90
2018-08-13T20:07:57.258Z,15.90
2018-08-13T20:10:26.735Z,15.80
2018-08-13T20:12:56.062Z,15.80
2018-08-13T20:15:26.149Z,15.70
2018-08-13T20:17:55.579Z,15.70
2018-08-13T20:20:25.085Z,15.70
2018-08-13T20:22:54.534Z,15.70
2018-08-13T20:25:23.878Z,15.70
2018-08-13T20:27:53.183Z,15.60
2018-08-13T20:30:23.494Z,15.60
2018-08-13T20:32:53.524Z,15.50
2018-08-13T20:35:22.891Z,15.50
2018-08-13T20:37:52.672Z,15.50
2018-08-13T20:40:22.193Z,15.40
2018-08-13T20:42:51.536Z,15.40
2018-08-13T20:45:22.190Z,15.40
2018-08-13T20:47:51.553Z,15.30
2018-08-13T20:50:22.866Z,15.30
2018-08-13T20:52:52.885Z,15.30
2018-08-13T20:55:24.158Z,15.20
2018-08-13T20:57:53.542Z,15.20
2018-08-13T21:00:24.379Z,15.20
2018-08-13T21:02:54.439Z,15.20
2018-08-13T21:05:23.590Z,15.10
2018-08-13T21:07:52.863Z,15.20
2018-08-13T21:10:24.809Z,15.10
2018-08-13T21:12:54.146Z,15.10
2018-08-13T21:15:24.662Z,15.10
2018-08-13T21:17:54.895Z,15.10
2018-08-13T21:20:25.476Z,15.00
2018-08-13T21:22:55.210Z,15.10
2018-08-13T21:25:24.748Z,15.00
2018-08-13T21:27:54.162Z,15.00
2018-08-13T21:30:23.751Z,15.00
2018-08-13T21:32:53.351Z,15.00
2018-08-13T21:35:24.765Z,14.90
2018-08-13T21:37:54.688Z,14.90
2018-08-13T21:40:24.301Z,14.90
2018-08-13T21:42:53.521Z,14.90
2018-08-13T21:45:23.198Z,14.80
2018-08-13T21:47:52.454Z,14.80
2018-08-13T21:50:22.833Z,14.80
2018-08-13T21:52:52.734Z,14.80
2018-08-13T21:55:22.017Z,14.80
2018-08-13T21:57:51.026Z,14.80
2018-08-13T22:00:28.894Z,14.80
2018-08-13T22:02:59.168Z,14.70
2018-08-13T22:05:28.729Z,14.70
2018-08-13T22:07:57.670Z,14.70
2018-08-13T22:10:27.329Z,14.70
2018-08-13T22:12:56.379Z,14.80
2018-08-13T22:15:26.630Z,14.80
2018-08-13T22:17:56.786Z,14.70
2018-08-13T22:20:26.593Z,14.70
2018-08-13T22:22:56.797Z,14.70
2018-08-13T22:25:30.445Z,14.70
2018-08-13T22:28:00.074Z,14.70
2018-08-13T22:30:30.382Z,14.60
2018-08-13T22:32:59.900Z,14.60
2018-08-13T22:35:28.933Z,14.60
2018-08-13T22:37:58.211Z,14.60
2018-08-13T22:40:27.414Z,14.50
2018-08-13T22:42:56.876Z,14.50
2018-08-13T22:45:26.242Z,14.50
2018-08-13T22:47:55.317Z,14.40
2018-08-13T22:50:25.041Z,14.40
2018-08-13T22:52:54.698Z,14.40
2018-08-13T22:55:24.361Z,14.40
2018-08-13T22:57:54.073Z,14.40
2018-08-13T23:00:23.757Z,14.30
2018-08-13T23:02:52.694Z,14.30
2018-08-13T23:05:24.742Z,14.30
2018-08-13T23:07:53.871Z,14.20
2018-08-13T23:10:24.107Z,14.20
2018-08-13T23:12:54.277Z,14.20
2018-08-13T23:15:23.670Z,14.20
2018-08-13T23:17:53.417Z,14.20
2018-08-13T23:20:24.819Z,14.10
2018-08-13T23:23:00.171Z,14.10
2018-08-13T23:25:30.227Z,14.00
2018-08-13T23:28:00.517Z,14.00
2018-08-13T23:30:30.541Z,13.90
2018-08-13T23:33:00.806Z,13.90
2018-08-13T23:35:30.654Z,13.90
2018-08-13T23:37:59.969Z,13.90
2018-08-13T23:40:29.768Z,13.90
2018-08-13T23:42:58.719Z,13.90
2018-08-13T23:45:29.247Z,13.80
2018-08-13T23:47:58.230Z,13.80
2018-08-13T23:50:28.268Z,13.80
2018-08-13T23:52:58.811Z,13.80
2018-08-13T23:55:29.504Z,13.80
2018-08-13T23:57:58.860Z,13.70
